sensor_id;sensor_type;location;lat;lon;timestamp;pressure;altitude;pressure_sealevel;temperature;humidity
70133;BME280;57495;49.922;7.966;2023-03-21T00:00:32;100203.91;;;8.96;83.25
70133;BME280;57495;49.922;7.966;2023-03-21T00:02:34;100205.88;;;8.94;83.97
70133;BME280;57495;49.922;7.966;2023-03-21T00:04:35;100206.94;;;8.92;83.92
70133;BME280;57495;49.922;7.966;2023-03-21T00:06:37;100194.81;;;8.99;83.56
70133;BME280;57495;49.922;7.966;2023-03-21T00:08:38;100200.25;;;8.97;83.38
70133;BME280;57495;49.922;7.966;2023-03-21T00:10:40;100194.69;;;9.00;83.68
70133;BME280;57495;49.922;7.966;2023-03-21T00:12:41;100196.75;;;8.97;82.71
70133;BME280;57495;49.922;7.966;2023-03-21T00:14:43;100193.31;;;9.06;82.54
70133;BME280;57495;49.922;7.966;2023-03-21T00:16:47;100190.00;;;8.93;82.58
70133;BME280;57495;49.922;7.966;2023-03-21T00:18:49;100191.41;;;8.97;82.07
70133;BME280;57495;49.922;7.966;2023-03-21T00:20:55;100192.66;;;8.93;83.55
70133;BME280;57495;49.922;7.966;2023-03-21T00:22:57;100191.75;;;9.03;83.16
70133;BME280;57495;49.922;7.966;2023-03-21T00:24:59;100181.41;;;8.89;83.63
70133;BME280;57495;49.922;7.966;2023-03-21T00:27:00;100183.53;;;8.95;83.72
70133;BME280;57495;49.922;7.966;2023-03-21T00:29:01;100177.97;;;8.98;84.03
70133;BME280;57495;49.922;7.966;2023-03-21T00:31:04;100179.50;;;9.01;83.56
70133;BME280;57495;49.922;7.966;2023-03-21T00:33:07;100184.72;;;9.02;83.95
70133;BME280;57495;49.922;7.966;2023-03-21T00:35:08;100180.38;;;9.01;83.33
70133;BME280;57495;49.922;7.966;2023-03-21T00:37:10;100179.38;;;9.02;83.34
70133;BME280;57495;49.922;7.966;2023-03-21T00:39:13;100182.19;;;9.01;83.57
70133;BME280;57495;49.922;7.966;2023-03-21T00:41:15;100177.56;;;9.03;83.78
70133;BME280;57495;49.922;7.966;2023-03-21T00:43:16;100175.03;;;9.01;84.02
70133;BME280;57495;49.922;7.966;2023-03-21T00:45:18;100184.78;;;8.91;84.21
70133;BME280;57495;49.922;7.966;2023-03-21T00:47:21;100172.16;;;8.93;83.73
70133;BME280;57495;49.922;7.966;2023-03-21T00:49:24;100169.31;;;8.85;84.65
70133;BME280;57495;49.922;7.966;2023-03-21T00:51:25;100178.78;;;8.78;84.57
70133;BME280;57495;49.922;7.966;2023-03-21T00:53:27;100175.13;;;8.79;85.31
70133;BME280;57495;49.922;7.966;2023-03-21T00:55:29;100172.94;;;8.84;85.93
70133;BME280;57495;49.922;7.966;2023-03-21T00:57:30;100170.84;;;8.87;85.38
70133;BME280;57495;49.922;7.966;2023-03-21T00:59:32;100165.53;;;8.87;85.20
70133;BME280;57495;49.922;7.966;2023-03-21T01:01:33;100163.97;;;8.85;85.24
70133;BME280;57495;49.922;7.966;2023-03-21T01:03:35;100159.72;;;8.82;85.05
70133;BME280;57495;49.922;7.966;2023-03-21T01:05:44;100155.69;;;8.88;84.49
70133;BME280;57495;49.922;7.966;2023-03-21T01:08:05;100156.41;;;8.90;84.58
70133;BME280;57495;49.922;7.966;2023-03-21T01:10:09;100147.19;;;8.94;84.47
70133;BME280;57495;49.922;7.966;2023-03-21T01:12:11;100144.38;;;8.96;83.99
70133;BME280;57495;49.922;7.966;2023-03-21T01:14:13;100150.56;;;8.96;83.67
70133;BME280;57495;49.922;7.966;2023-03-21T01:16:15;100142.56;;;8.96;83.19
70133;BME280;57495;49.922;7.966;2023-03-21T01:18:18;100144.38;;;8.96;83.55
70133;BME280;57495;49.922;7.966;2023-03-21T01:20:20;100147.91;;;8.96;83.53
70133;BME280;57495;49.922;7.966;2023-03-21T01:22:23;100140.88;;;8.95;83.65
70133;BME280;57495;49.922;7.966;2023-03-21T01:24:25;100146.72;;;8.89;84.16
70133;BME280;57495;49.922;7.966;2023-03-21T01:26:27;100139.91;;;8.96;84.14
70133;BME280;57495;49.922;7.966;2023-03-21T01:28:29;100139.63;;;8.99;84.55
70133;BME280;57495;49.922;7.966;2023-03-21T01:30:31;100138.66;;;9.00;84.81
70133;BME280;57495;49.922;7.966;2023-03-21T01:32:32;100142.16;;;9.01;84.99
70133;BME280;57495;49.922;7.966;2023-03-21T01:34:33;100142.16;;;9.01;85.05
70133;BME280;57495;49.922;7.966;2023-03-21T01:36:35;100143.03;;;9.01;86.54
70133;BME280;57495;49.922;7.966;2023-03-21T01:38:39;100140.50;;;9.00;88.84
70133;BME280;57495;49.922;7.966;2023-03-21T01:40:43;100138.78;;;8.99;89.99
70133;BME280;57495;49.922;7.966;2023-03-21T01:42:45;100143.53;;;8.95;89.14
70133;BME280;57495;49.922;7.966;2023-03-21T01:44:55;100133.16;;;8.92;90.01
70133;BME280;57495;49.922;7.966;2023-03-21T01:46:57;100137.38;;;8.95;87.60
70133;BME280;57495;49.922;7.966;2023-03-21T01:49:01;100134.69;;;8.95;85.78
70133;BME280;57495;49.922;7.966;2023-03-21T01:51:02;100128.38;;;8.96;85.51
70133;BME280;57495;49.922;7.966;2023-03-21T01:53:03;100129.50;;;8.93;84.96
70133;BME280;57495;49.922;7.966;2023-03-21T01:55:09;100128.66;;;8.93;84.29
70133;BME280;57495;49.922;7.966;2023-03-21T01:57:15;100127.06;;;8.90;83.80
70133;BME280;57495;49.922;7.966;2023-03-21T01:59:20;100123.19;;;8.94;83.82
70133;BME280;57495;49.922;7.966;2023-03-21T02:01:24;100120.78;;;8.91;84.33
70133;BME280;57495;49.922;7.966;2023-03-21T02:03:26;100130.84;;;8.87;84.08
70133;BME280;57495;49.922;7.966;2023-03-21T02:05:31;100118.28;;;8.78;85.26
70133;BME280;57495;49.922;7.966;2023-03-21T02:07:35;100119.59;;;8.84;85.25
70133;BME280;57495;49.922;7.966;2023-03-21T02:09:44;100115.88;;;8.75;84.84
70133;BME280;57495;49.922;7.966;2023-03-21T02:11:48;100116.22;;;8.82;85.26
70133;BME280;57495;49.922;7.966;2023-03-21T02:13:50;100117.06;;;8.82;85.35
70133;BME280;57495;49.922;7.966;2023-03-21T02:15:58;100115.16;;;8.73;86.25
70133;BME280;57495;49.922;7.966;2023-03-21T02:18:05;100111.13;;;8.79;86.19
70133;BME280;57495;49.922;7.966;2023-03-21T02:20:39;100106.06;;;8.76;86.84
70133;BME280;57495;49.922;7.966;2023-03-21T02:23:01;100105.22;;;8.75;86.64
70133;BME280;57495;49.922;7.966;2023-03-21T02:25:41;100098.13;;;8.64;86.95
70133;BME280;57495;49.922;7.966;2023-03-21T02:27:54;100096.25;;;8.76;86.49
70133;BME280;57495;49.922;7.966;2023-03-21T02:32:29;100096.25;;;8.76;86.64
70133;BME280;57495;49.922;7.966;2023-03-21T02:34:56;100093.47;;;8.78;86.63
70133;BME280;57495;49.922;7.966;2023-03-21T02:37:20;100094.69;;;8.74;86.93
70133;BME280;57495;49.922;7.966;2023-03-21T02:39:25;100086.75;;;8.83;85.90
70133;BME280;57495;49.922;7.966;2023-03-21T02:41:35;100085.19;;;8.81;86.15
70133;BME280;57495;49.922;7.966;2023-03-21T02:43:45;100087.84;;;8.81;86.62
70133;BME280;57495;49.922;7.966;2023-03-21T02:45:51;100071.59;;;8.84;86.41
70133;BME280;57495;49.922;7.966;2023-03-21T02:47:57;100070.75;;;8.83;86.76
70133;BME280;57495;49.922;7.966;2023-03-21T02:50:06;100072.59;;;8.83;86.81
70133;BME280;57495;49.922;7.966;2023-03-21T02:52:14;100078.63;;;8.85;86.34
70133;BME280;57495;49.922;7.966;2023-03-21T02:54:20;100082.00;;;8.87;86.67
70133;BME280;57495;49.922;7.966;2023-03-21T02:56:24;100075.56;;;8.89;86.36
70133;BME280;57495;49.922;7.966;2023-03-21T02:58:27;100067.56;;;8.89;86.53
70133;BME280;57495;49.922;7.966;2023-03-21T03:00:32;100066.72;;;8.89;86.75
70133;BME280;57495;49.922;7.966;2023-03-21T03:02:35;100072.06;;;8.89;86.51
70133;BME280;57495;49.922;7.966;2023-03-21T03:04:36;100069.84;;;8.94;84.50
70133;BME280;57495;49.922;7.966;2023-03-21T03:06:43;100069.38;;;8.89;84.86
70133;BME280;57495;49.922;7.966;2023-03-21T03:09:00;100074.00;;;8.87;84.71
70133;BME280;57495;49.922;7.966;2023-03-21T03:11:17;100066.97;;;8.86;85.10
70133;BME280;57495;49.922;7.966;2023-03-21T03:13:34;100063.34;;;8.87;84.78
70133;BME280;57495;49.922;7.966;2023-03-21T03:15:43;100065.50;;;8.72;85.24
70133;BME280;57495;49.922;7.966;2023-03-21T03:17:50;100065.69;;;8.80;84.46
70133;BME280;57495;49.922;7.966;2023-03-21T03:20:04;100060.94;;;8.84;84.21
70133;BME280;57495;49.922;7.966;2023-03-21T03:22:14;100060.03;;;8.74;85.14
70133;BME280;57495;49.922;7.966;2023-03-21T03:24:23;100058.34;;;8.73;84.70
70133;BME280;57495;49.922;7.966;2023-03-21T03:26:30;100052.03;;;8.74;84.89
70133;BME280;57495;49.922;7.966;2023-03-21T03:28:36;100054.19;;;8.80;84.17
70133;BME280;57495;49.922;7.966;2023-03-21T03:30:39;100051.03;;;8.75;84.76
70133;BME280;57495;49.922;7.966;2023-03-21T03:32:46;100053.84;;;8.73;85.43
70133;BME280;57495;49.922;7.966;2023-03-21T03:34:50;100048.50;;;8.73;85.15
70133;BME280;57495;49.922;7.966;2023-03-21T03:36:56;100044.59;;;8.77;84.94
70133;BME280;57495;49.922;7.966;2023-03-21T03:39:02;100051.50;;;8.80;87.76
70133;BME280;57495;49.922;7.966;2023-03-21T03:41:09;100049.94;;;8.77;88.81
70133;BME280;57495;49.922;7.966;2023-03-21T03:43:17;100056.97;;;8.78;89.01
70133;BME280;57495;49.922;7.966;2023-03-21T03:45:23;100059.75;;;8.77;89.39
70133;BME280;57495;49.922;7.966;2023-03-21T03:47:32;100059.75;;;8.77;90.67
70133;BME280;57495;49.922;7.966;2023-03-21T03:49:40;100051.75;;;8.77;90.54
70133;BME280;57495;49.922;7.966;2023-03-21T03:51:49;100051.75;;;8.77;90.82
70133;BME280;57495;49.922;7.966;2023-03-21T03:53:54;100067.28;;;8.71;91.22
70133;BME280;57495;49.922;7.966;2023-03-21T03:55:58;100058.34;;;8.73;90.39
70133;BME280;57495;49.922;7.966;2023-03-21T03:58:02;100071.66;;;8.73;90.00
70133;BME280;57495;49.922;7.966;2023-03-21T04:00:04;100067.28;;;8.71;90.19
70133;BME280;57495;49.922;7.966;2023-03-21T04:02:11;100073.50;;;8.72;89.91
70133;BME280;57495;49.922;7.966;2023-03-21T04:04:13;100063.78;;;8.71;90.12
70133;BME280;57495;49.922;7.966;2023-03-21T04:06:16;100070.94;;;8.70;90.34
70133;BME280;57495;49.922;7.966;2023-03-21T04:08:17;100071.53;;;8.74;90.51
70133;BME280;57495;49.922;7.966;2023-03-21T04:10:23;100074.09;;;8.76;90.46
70133;BME280;57495;49.922;7.966;2023-03-21T04:12:25;100068.47;;;8.79;91.77
70133;BME280;57495;49.922;7.966;2023-03-21T04:14:27;100066.78;;;8.78;91.56
70133;BME280;57495;49.922;7.966;2023-03-21T04:16:29;100071.00;;;8.80;90.56
70133;BME280;57495;49.922;7.966;2023-03-21T04:18:31;100065.44;;;8.83;90.33
70133;BME280;57495;49.922;7.966;2023-03-21T04:20:33;100065.69;;;8.80;89.30
70133;BME280;57495;49.922;7.966;2023-03-21T04:22:34;100072.91;;;8.68;87.75
70133;BME280;57495;49.922;7.966;2023-03-21T04:24:37;100064.44;;;8.63;88.60
70133;BME280;57495;49.922;7.966;2023-03-21T04:26:39;100071.31;;;8.66;89.88
70133;BME280;57495;49.922;7.966;2023-03-21T04:28:41;100071.06;;;8.48;90.73
70133;BME280;57495;49.922;7.966;2023-03-21T04:30:44;100060.41;;;8.48;90.75
70133;BME280;57495;49.922;7.966;2023-03-21T04:32:45;100068.28;;;8.38;91.17
70133;BME280;57495;49.922;7.966;2023-03-21T04:34:56;100063.56;;;8.42;91.37
70133;BME280;57495;49.922;7.966;2023-03-21T04:36:57;100061.38;;;8.47;90.56
70133;BME280;57495;49.922;7.966;2023-03-21T04:38:59;100062.44;;;8.56;90.21
70133;BME280;57495;49.922;7.966;2023-03-21T04:41:01;100056.81;;;8.59;89.92
70133;BME280;57495;49.922;7.966;2023-03-21T04:43:02;100050.66;;;8.58;90.27
70133;BME280;57495;49.922;7.966;2023-03-21T04:45:05;100057.16;;;8.65;90.32
70133;BME280;57495;49.922;7.966;2023-03-21T04:47:08;100047.34;;;8.66;89.83
70133;BME280;57495;49.922;7.966;2023-03-21T04:49:10;100051.56;;;8.68;89.96
70133;BME280;57495;49.922;7.966;2023-03-21T04:51:11;100045.00;;;8.73;90.08
70133;BME280;57495;49.922;7.966;2023-03-21T04:53:13;100050.22;;;8.74;89.76
70133;BME280;57495;49.922;7.966;2023-03-21T04:55:14;100041.50;;;8.72;89.56
70133;BME280;57495;49.922;7.966;2023-03-21T04:57:16;100045.72;;;8.75;89.32
70133;BME280;57495;49.922;7.966;2023-03-21T04:59:18;100046.84;;;8.72;89.38
70133;BME280;57495;49.922;7.966;2023-03-21T05:01:20;100040.91;;;8.68;88.77
70133;BME280;57495;49.922;7.966;2023-03-21T05:03:23;100045.97;;;8.71;88.40
70133;BME280;57495;49.922;7.966;2023-03-21T05:05:25;100043.47;;;8.70;88.66
70133;BME280;57495;49.922;7.966;2023-03-21T05:07:26;100043.31;;;8.71;89.01
70133;BME280;57495;49.922;7.966;2023-03-21T05:09:30;100035.31;;;8.71;89.03
70133;BME280;57495;49.922;7.966;2023-03-21T05:11:33;100039.09;;;8.69;88.58
70133;BME280;57495;49.922;7.966;2023-03-21T05:13:36;100042.59;;;8.69;88.76
70133;BME280;57495;49.922;7.966;2023-03-21T05:15:38;100041.63;;;8.70;88.42
70133;BME280;57495;49.922;7.966;2023-03-21T05:17:39;100046.25;;;8.68;88.02
70133;BME280;57495;49.922;7.966;2023-03-21T05:19:43;100050.59;;;8.69;87.72
70133;BME280;57495;49.922;7.966;2023-03-21T05:21:45;100045.72;;;8.75;87.84
70133;BME280;57495;49.922;7.966;2023-03-21T05:23:46;100044.47;;;8.79;88.70
70133;BME280;57495;49.922;7.966;2023-03-21T05:25:53;100048.84;;;8.80;89.68
70133;BME280;57495;49.922;7.966;2023-03-21T05:27:54;100041.56;;;8.82;91.25
70133;BME280;57495;49.922;7.966;2023-03-21T05:29:56;100043.25;;;8.83;92.02
70133;BME280;57495;49.922;7.966;2023-03-21T05:31:58;100039.84;;;8.81;90.59
70133;BME280;57495;49.922;7.966;2023-03-21T05:34:01;100035.97;;;8.85;91.11
70133;BME280;57495;49.922;7.966;2023-03-21T05:36:04;100037.50;;;8.87;90.66
70133;BME280;57495;49.922;7.966;2023-03-21T05:38:06;100037.38;;;8.89;90.51
70133;BME280;57495;49.922;7.966;2023-03-21T05:40:08;100040.78;;;8.91;90.95
70133;BME280;57495;49.922;7.966;2023-03-21T05:42:10;100037.97;;;8.93;90.70
70133;BME280;57495;49.922;7.966;2023-03-21T05:44:11;100047.66;;;8.94;90.43
70133;BME280;57495;49.922;7.966;2023-03-21T05:46:13;100041.34;;;8.95;88.90
70133;BME280;57495;49.922;7.966;2023-03-21T05:48:14;100048.09;;;8.99;88.76
70133;BME280;57495;49.922;7.966;2023-03-21T05:50:16;100048.22;;;8.97;89.16
70133;BME280;57495;49.922;7.966;2023-03-21T05:52:18;100047.00;;;9.01;93.01
70133;BME280;57495;49.922;7.966;2023-03-21T05:54:20;100050.41;;;9.03;92.79
70133;BME280;57495;49.922;7.966;2023-03-21T05:56:21;100055.72;;;9.03;91.43
70133;BME280;57495;49.922;7.966;2023-03-21T05:58:23;100053.44;;;8.99;90.94
70133;BME280;57495;49.922;7.966;2023-03-21T06:00:24;100054.59;;;9.06;91.62
70133;BME280;57495;49.922;7.966;2023-03-21T06:02:26;100050.09;;;9.06;92.30
70133;BME280;57495;49.922;7.966;2023-03-21T06:04:28;100054.34;;;9.09;91.98
70133;BME280;57495;49.922;7.966;2023-03-21T06:06:29;100048.16;;;9.08;91.25
70133;BME280;57495;49.922;7.966;2023-03-21T06:08:32;100040.59;;;9.14;91.90
70133;BME280;57495;49.922;7.966;2023-03-21T06:10:34;100045.69;;;9.17;90.68
70133;BME280;57495;49.922;7.966;2023-03-21T06:12:35;100043.97;;;9.16;89.70
70133;BME280;57495;49.922;7.966;2023-03-21T06:14:37;100060.28;;;9.13;90.73
70133;BME280;57495;49.922;7.966;2023-03-21T06:16:38;100054.34;;;9.09;89.44
70133;BME280;57495;49.922;7.966;2023-03-21T06:18:40;100050.97;;;9.07;88.47
70133;BME280;57495;49.922;7.966;2023-03-21T06:20:41;100055.19;;;9.09;88.96
70133;BME280;57495;49.922;7.966;2023-03-21T06:22:43;100057.44;;;9.14;88.91
70133;BME280;57495;49.922;7.966;2023-03-21T06:24:45;100055.09;;;9.21;87.78
70133;BME280;57495;49.922;7.966;2023-03-21T06:26:47;100065.22;;;9.27;87.75
70133;BME280;57495;49.922;7.966;2023-03-21T06:28:49;100058.38;;;9.34;90.02
70133;BME280;57495;49.922;7.966;2023-03-21T06:30:51;100056.28;;;9.38;89.69
70133;BME280;57495;49.922;7.966;2023-03-21T06:32:52;100054.13;;;9.22;88.64
70133;BME280;57495;49.922;7.966;2023-03-21T06:34:54;100051.88;;;9.27;88.74
70133;BME280;57495;49.922;7.966;2023-03-21T06:36:55;100054.97;;;9.22;87.17
70133;BME280;57495;49.922;7.966;2023-03-21T06:38:57;100057.31;;;9.16;87.38
70133;BME280;57495;49.922;7.966;2023-03-21T06:41:00;100062.41;;;9.19;87.69
70133;BME280;57495;49.922;7.966;2023-03-21T06:43:03;100064.81;;;9.22;88.35
70133;BME280;57495;49.922;7.966;2023-03-21T06:45:06;100060.31;;;9.22;89.29
70133;BME280;57495;49.922;7.966;2023-03-21T06:47:07;100054.13;;;9.22;91.06
70133;BME280;57495;49.922;7.966;2023-03-21T06:49:08;100048.50;;;9.25;91.51
70133;BME280;57495;49.922;7.966;2023-03-21T06:51:11;100062.13;;;9.22;90.34
70133;BME280;57495;49.922;7.966;2023-03-21T06:53:12;100065.16;;;9.07;90.03
70133;BME280;57495;49.922;7.966;2023-03-21T06:55:14;100058.03;;;9.18;89.43
70133;BME280;57495;49.922;7.966;2023-03-21T06:57:19;100068.41;;;9.11;89.99
70133;BME280;57495;49.922;7.966;2023-03-21T06:59:21;100059.25;;;8.83;90.74
70133;BME280;57495;49.922;7.966;2023-03-21T07:01:22;100069.06;;;8.82;90.52
70133;BME280;57495;49.922;7.966;2023-03-21T07:03:26;100063.84;;;9.02;90.73
70133;BME280;57495;49.922;7.966;2023-03-21T07:05:28;100060.78;;;9.06;90.54
70133;BME280;57495;49.922;7.966;2023-03-21T07:07:29;100063.03;;;9.01;90.22
70133;BME280;57495;49.922;7.966;2023-03-21T07:09:31;100060.88;;;9.26;90.70
70133;BME280;57495;49.922;7.966;2023-03-21T07:11:35;100062.34;;;9.40;91.87
70133;BME280;57495;49.922;7.966;2023-03-21T07:13:38;100067.75;;;9.50;91.52
70133;BME280;57495;49.922;7.966;2023-03-21T07:15:40;100064.75;;;9.43;87.86
70133;BME280;57495;49.922;7.966;2023-03-21T07:17:41;100065.06;;;9.50;89.41
70133;BME280;57495;49.922;7.966;2023-03-21T07:19:43;100068.25;;;9.43;86.99
70133;BME280;57495;49.922;7.966;2023-03-21T07:21:44;100071.06;;;9.42;89.68
70133;BME280;57495;49.922;7.966;2023-03-21T07:23:46;100080.63;;;9.44;88.15
70133;BME280;57495;49.922;7.966;2023-03-21T07:25:50;100073.81;;;9.31;87.59
70133;BME280;57495;49.922;7.966;2023-03-21T07:27:52;100074.31;;;9.15;87.04
70133;BME280;57495;49.922;7.966;2023-03-21T07:29:54;100068.91;;;9.05;88.86
70133;BME280;57495;49.922;7.966;2023-03-21T07:31:56;100070.94;;;9.13;88.21
70133;BME280;57495;49.922;7.966;2023-03-21T07:33:57;100067.81;;;9.07;87.96
70133;BME280;57495;49.922;7.966;2023-03-21T07:35:59;100069.72;;;9.26;87.43
70133;BME280;57495;49.922;7.966;2023-03-21T07:38:02;100063.72;;;9.34;89.81
70133;BME280;57495;49.922;7.966;2023-03-21T07:40:04;100066.47;;;9.23;88.06
70133;BME280;57495;49.922;7.966;2023-03-21T07:42:09;100067.38;;;9.33;89.71
70133;BME280;57495;49.922;7.966;2023-03-21T07:44:11;100069.97;;;9.44;88.73
70133;BME280;57495;49.922;7.966;2023-03-21T07:46:14;100067.19;;;9.25;87.07
70133;BME280;57495;49.922;7.966;2023-03-21T07:48:15;100067.91;;;9.27;86.21
70133;BME280;57495;49.922;7.966;2023-03-21T07:50:18;100060.13;;;9.45;85.33
70133;BME280;57495;49.922;7.966;2023-03-21T07:52:20;100062.66;;;9.46;87.71
70133;BME280;57495;49.922;7.966;2023-03-21T07:54:21;100065.13;;;9.38;84.24
70133;BME280;57495;49.922;7.966;2023-03-21T07:56:22;100066.47;;;9.54;83.91
70133;BME280;57495;49.922;7.966;2023-03-21T07:58:24;100062.66;;;9.46;87.71
70133;BME280;57495;49.922;7.966;2023-03-21T08:00:26;100065.78;;;9.52;86.64
70133;BME280;57495;49.922;7.966;2023-03-21T08:02:29;100062.97;;;9.53;85.95
70133;BME280;57495;49.922;7.966;2023-03-21T08:04:30;100066.06;;;9.58;84.54
70133;BME280;57495;49.922;7.966;2023-03-21T08:06:32;100067.22;;;9.65;84.00
70133;BME280;57495;49.922;7.966;2023-03-21T08:08:33;100068.34;;;9.63;84.21
70133;BME280;57495;49.922;7.966;2023-03-21T08:10:35;100064.84;;;9.72;84.18
70133;BME280;57495;49.922;7.966;2023-03-21T08:12:36;100071.75;;;9.84;83.83
70133;BME280;57495;49.922;7.966;2023-03-21T08:14:38;100069.81;;;9.86;85.32
70133;BME280;57495;49.922;7.966;2023-03-21T08:16:39;100067.22;;;9.75;83.64
70133;BME280;57495;49.922;7.966;2023-03-21T08:18:42;100067.22;;;9.75;85.54
70133;BME280;57495;49.922;7.966;2023-03-21T08:20:44;100070.31;;;9.71;85.72
70133;BME280;57495;49.922;7.966;2023-03-21T08:22:46;100070.72;;;9.66;84.74
70133;BME280;57495;49.922;7.966;2023-03-21T08:24:48;100073.69;;;9.63;85.76
70133;BME280;57495;49.922;7.966;2023-03-21T08:26:49;100065.25;;;9.67;83.84
70133;BME280;57495;49.922;7.966;2023-03-21T08:28:51;100071.81;;;9.54;84.32
70133;BME280;57495;49.922;7.966;2023-03-21T08:30:53;100076.47;;;9.61;83.85
70133;BME280;57495;49.922;7.966;2023-03-21T08:32:58;100067.44;;;9.53;83.08
70133;BME280;57495;49.922;7.966;2023-03-21T08:35:02;100070.31;;;9.61;82.10
70133;BME280;57495;49.922;7.966;2023-03-21T08:37:03;100067.50;;;9.62;82.10
70133;BME280;57495;49.922;7.966;2023-03-21T08:39:06;100066.88;;;9.49;81.31
70133;BME280;57495;49.922;7.966;2023-03-21T08:41:07;100069.66;;;9.47;81.66
70133;BME280;57495;49.922;7.966;2023-03-21T08:43:09;100076.44;;;9.52;82.07
70133;BME280;57495;49.922;7.966;2023-03-21T08:45:11;100076.41;;;9.42;83.14
70133;BME280;57495;49.922;7.966;2023-03-21T08:47:13;100071.00;;;9.53;82.08
70133;BME280;57495;49.922;7.966;2023-03-21T08:49:14;100071.69;;;9.55;82.61
70133;BME280;57495;49.922;7.966;2023-03-21T08:51:17;100074.63;;;9.52;82.63
70133;BME280;57495;49.922;7.966;2023-03-21T08:53:19;100076.81;;;9.68;84.80
70133;BME280;57495;49.922;7.966;2023-03-21T08:55:20;100080.44;;;9.67;85.38
70133;BME280;57495;49.922;7.966;2023-03-21T08:57:22;100073.38;;;9.66;82.94
70133;BME280;57495;49.922;7.966;2023-03-21T08:59:23;100083.25;;;9.75;82.60
70133;BME280;57495;49.922;7.966;2023-03-21T09:01:25;100080.59;;;9.75;84.34
70133;BME280;57495;49.922;7.966;2023-03-21T09:03:26;100082.03;;;9.79;83.19
70133;BME280;57495;49.922;7.966;2023-03-21T09:05:29;100077.91;;;9.75;84.05
70133;BME280;57495;49.922;7.966;2023-03-21T09:07:32;100078.47;;;9.69;83.33
70133;BME280;57495;49.922;7.966;2023-03-21T09:09:35;100081.31;;;9.77;85.44
70133;BME280;57495;49.922;7.966;2023-03-21T09:11:37;100077.06;;;9.65;85.30
70133;BME280;57495;49.922;7.966;2023-03-21T09:13:38;100076.50;;;9.71;84.57
70133;BME280;57495;49.922;7.966;2023-03-21T09:15:40;100076.13;;;9.76;85.64
70133;BME280;57495;49.922;7.966;2023-03-21T09:17:41;100077.41;;;9.81;84.16
70133;BME280;57495;49.922;7.966;2023-03-21T09:19:48;100068.06;;;9.66;84.50
70133;BME280;57495;49.922;7.966;2023-03-21T09:21:50;100078.47;;;9.69;84.99
70133;BME280;57495;49.922;7.966;2023-03-21T09:23:54;100076.47;;;9.61;84.95
70133;BME280;57495;49.922;7.966;2023-03-21T09:25:57;100077.59;;;9.59;86.17
70133;BME280;57495;49.922;7.966;2023-03-21T09:27:59;100078.81;;;9.45;83.81
70133;BME280;57495;49.922;7.966;2023-03-21T09:30:01;100075.00;;;9.47;87.29
70133;BME280;57495;49.922;7.966;2023-03-21T09:32:05;100078.47;;;9.38;83.48
70133;BME280;57495;49.922;7.966;2023-03-21T09:34:07;100074.16;;;9.47;87.83
70133;BME280;57495;49.922;7.966;2023-03-21T09:36:10;100072.22;;;9.49;88.56
70133;BME280;57495;49.922;7.966;2023-03-21T09:38:13;100065.81;;;9.61;85.48
70133;BME280;57495;49.922;7.966;2023-03-21T09:40:20;100066.38;;;9.65;88.29
70133;BME280;57495;49.922;7.966;2023-03-21T09:42:32;100077.31;;;9.62;90.22
70133;BME280;57495;49.922;7.966;2023-03-21T09:44:50;100074.97;;;9.68;87.15
70133;BME280;57495;49.922;7.966;2023-03-21T09:46:57;100072.28;;;9.59;88.94
70133;BME280;57495;49.922;7.966;2023-03-21T09:49:03;100073.69;;;9.73;87.94
70133;BME280;57495;49.922;7.966;2023-03-21T09:51:12;100076.81;;;9.68;88.47
70133;BME280;57495;49.922;7.966;2023-03-21T09:53:21;100076.25;;;9.74;87.48
70133;BME280;57495;49.922;7.966;2023-03-21T09:55:26;100076.25;;;9.74;88.08
70133;BME280;57495;49.922;7.966;2023-03-21T09:57:32;100071.28;;;9.60;87.62
70133;BME280;57495;49.922;7.966;2023-03-21T09:59:37;100074.19;;;9.57;88.91
70133;BME280;57495;49.922;7.966;2023-03-21T10:01:43;100074.78;;;9.60;91.77
70133;BME280;57495;49.922;7.966;2023-03-21T10:03:47;100068.31;;;9.53;88.97
70133;BME280;57495;49.922;7.966;2023-03-21T10:05:50;100066.28;;;9.45;89.94
70133;BME280;57495;49.922;7.966;2023-03-21T10:08:00;100073.88;;;9.40;89.75
70133;BME280;57495;49.922;7.966;2023-03-21T10:10:04;100064.78;;;9.53;90.92
70133;BME280;57495;49.922;7.966;2023-03-21T10:12:13;100068.56;;;9.50;92.67
70133;BME280;57495;49.922;7.966;2023-03-21T10:14:18;100066.97;;;9.38;93.66
70133;BME280;57495;49.922;7.966;2023-03-21T10:16:25;100069.25;;;9.42;96.29
70133;BME280;57495;49.922;7.966;2023-03-21T10:18:29;100066.75;;;9.51;93.14
70133;BME280;57495;49.922;7.966;2023-03-21T10:20:32;100070.31;;;9.61;93.39
70133;BME280;57495;49.922;7.966;2023-03-21T10:22:34;100065.66;;;9.63;93.82
70133;BME280;57495;49.922;7.966;2023-03-21T10:24:36;100059.78;;;9.69;93.37
70133;BME280;57495;49.922;7.966;2023-03-21T10:26:37;100069.50;;;9.70;94.71
70133;BME280;57495;49.922;7.966;2023-03-21T10:28:41;100069.38;;;9.72;94.99
70133;BME280;57495;49.922;7.966;2023-03-21T10:30:45;100070.66;;;9.77;95.25
70133;BME280;57495;49.922;7.966;2023-03-21T10:32:49;100067.97;;;9.77;94.43
70133;BME280;57495;49.922;7.966;2023-03-21T10:34:52;100066.16;;;9.87;94.13
70133;BME280;57495;49.922;7.966;2023-03-21T10:36:55;100065.88;;;9.81;92.42
70133;BME280;57495;49.922;7.966;2023-03-21T10:38:59;100061.63;;;9.78;91.48
70133;BME280;57495;49.922;7.966;2023-03-21T10:41:03;100062.34;;;9.80;90.88
70133;BME280;57495;49.922;7.966;2023-03-21T10:43:31;100061.38;;;10.01;92.83
70133;BME280;57495;49.922;7.966;2023-03-21T10:45:35;100053.81;;;10.06;92.19
70133;BME280;57495;49.922;7.966;2023-03-21T10:47:37;100056.31;;;9.88;92.81
70133;BME280;57495;49.922;7.966;2023-03-21T10:49:38;100055.50;;;10.07;91.42
70133;BME280;57495;49.922;7.966;2023-03-21T10:51:40;100047.50;;;10.17;90.97
70133;BME280;57495;49.922;7.966;2023-03-21T10:53:45;100051.31;;;10.24;92.05
70133;BME280;57495;49.922;7.966;2023-03-21T10:55:53;100048.19;;;10.29;91.45
70133;BME280;57495;49.922;7.966;2023-03-21T10:57:58;100054.44;;;10.39;92.30